LIPE 200120Z VRB02KT CAVOK 18/12 Q1025 LIPE 200050Z VRB01KT CAVOK 17/12 Q1025 LIPE 200020Z VRB01KT CAVOK 17/12 Q1025 LIPE 192350Z VRB01KT CAVOK 17/12 Q1025 LIPE 192320Z VRB01KT CAVOK 16/11 Q1026 LIPE 192250Z 16004KT CAVOK 17/12 Q1026 LIPE 192220Z 09002KT CAVOK 17/10 Q1026 LIPE 192150Z 09004KT CAVOK 16/10 Q1026 LIPE 192120Z 08003KT CAVOK 17/10 Q1026 LIPE 192050Z 09004KT CAVOK 18/10 Q1026 LIPE 192020Z 09005KT CAVOK 19/10 Q1025 LIPE 191950Z 08006KT CAVOK 20/10 Q1025 LIPE 191920Z 10007KT CAVOK 20/09 Q1025 LIPE 191850Z 09009KT CAVOK 22/09 Q1025 LIPE 191820Z 09008KT CAVOK 22/09 Q1025 LIPE 191750Z 09009KT CAVOK 23/09 Q1024 LIPE 191720Z 09010KT CAVOK 24/09 Q1024 LIPE 191650Z 09010KT CAVOK 25/11 Q1024 LIPE 191620Z 09009KT CAVOK 26/11 Q1024 LIPE 191550Z 08008KT 050V110 CAVOK 27/11 Q1024 LIPE 191520Z 07007KT 030V100 CAVOK 27/11 Q1025 LIPE 191450Z 08008KT 040V120 CAVOK 27/10 Q1025 LIPE 191420Z 08007KT 040V120 CAVOK 27/12 Q1025 LIPE 191350Z 08006KT 040V110 CAVOK 27/12 Q1025 LIPE 191320Z 07007KT 030V120 CAVOK 26/14 Q1026 LIPE 191250Z 09008KT 040V120 CAVOK 26/13 Q1026 LIPE 191220Z 06008KT CAVOK 25/13 Q1026 LIPE 191150Z 10007KT 080V140 CAVOK 26/13 Q1026 LIPE 191120Z 08009KT 040V110 CAVOK 25/12 Q1026 LIPE 191050Z 05006KT 360V160 CAVOK 25/12 Q1027 LIPE 191020Z 09007KT 050V120 CAVOK 24/11 Q1027 LIPE 190950Z 07008KT 040V100 CAVOK 24/11 Q1027 LIPE 190920Z 07007KT 030V100 CAVOK 24/11 Q1027 LIPE 190850Z 07005KT 010V140 CAVOK 23/12 Q1027 LIPE 190820Z VRB02KT CAVOK 23/10 Q1027 LIPE 190750Z VRB01KT CAVOK 22/11 Q1027 LIPE 190720Z VRB02KT CAVOK 21/10 Q1027 LIPE 190650Z VRB02KT CAVOK 20/10 Q1027 LIPE 190620Z 17003KT CAVOK 19/10 Q1027 LIPE 190550Z 16003KT 140V200 CAVOK 18/09 Q1027 LIPE 190520Z 18003KT 120V210 CAVOK 17/10 Q1026 LIPE 190450Z VRB02KT CAVOK 15/10 Q1026 LIPE 190420Z 18003KT 150V210 CAVOK 14/09 Q1026 LIPE 190350Z VRB02KT CAVOK 15/09 Q1026 LIPE 190320Z VRB02KT CAVOK 15/09 Q1025 LIPE 190250Z VRB02KT CAVOK 16/09 Q1025 LIPE 190220Z 15004KT CAVOK 14/09 Q1025 LIPE 190150Z 22002KT CAVOK 16/09 Q1026 LIPE 190120Z 19003KT 140V210 CAVOK 17/08 Q1025 LIPE 190050Z 15003KT 120V180 CAVOK 17/07 Q1025 LIPE 190020Z 15005KT 120V200 CAVOK 19/06 Q1025 LIPE 182350Z 13005KT CAVOK 19/06 Q1025 LIPE 182320Z 12007KT CAVOK 18/06 Q1025 LIPE 182250Z 13006KT CAVOK 18/07 Q1025 LIPE 182220Z 13007KT CAVOK 19/07 Q1025 LIPE 182150Z 13008KT CAVOK 20/06 Q1024 LIPE 182120Z 13008KT CAVOK 21/07 Q1024 LIPE 182050Z 12008KT CAVOK 20/08 Q1024 LIPE 182020Z 12008KT CAVOK 20/09 Q1023 LIPE 181950Z 11009KT CAVOK 20/10 Q1023 LIPE 181920Z 11009KT CAVOK 21/10 Q1023 LIPE 181850Z 10011KT CAVOK 22/11 Q1023 LIPE 181820Z 10011KT CAVOK 22/11 Q1022 LIPE 181750Z 10011KT CAVOK 24/11 Q1022 LIPE 181720Z 10012KT CAVOK 25/11 Q1022 LIPE 181650Z 10012KT CAVOK 25/12 Q1021 LIPE 181620Z 12014KT CAVOK 26/10 Q1021 LIPE 181550Z 10012KT 070V130 CAVOK 26/11 Q1021 LIPE 181520Z 10014KT CAVOK 27/12 Q1021 LIPE 181450Z 10014KT CAVOK 27/14 Q1021 LIPE 181420Z 10014KT CAVOK 27/14 Q1021 LIPE 181350Z 10015KT CAVOK 27/14 Q1021

METAR Messwerte "BOLOGNA/BORGO (A" LIPE

Zurück zur Übersicht

Ortsname
Ländercode / m ü. NN
Zeit Temperatur Taupunkt Rel.
Luftfeuchte
Luftdruck:
Altimeter
NN
Station
Wind in Beaufort
(Knoten)
Sichtweite
(Meter)
Wolken
(Meter über Grund)
Wettererscheinung
BOLOGNA/BORGO (A
IT 37
Fr 20.05. 03:20181268 %1025
1025
1021
Uml 1 (2)>= 10000Nicht signifikant 
BOLOGNA/BORGO (A
IT 37
Fr 20.05. 02:50171272 %1025
1025
1021
Uml 1 (1)>= 10000Nicht signifikant 
BOLOGNA/BORGO (A
IT 37
Fr 20.05. 02:20171272 %1025
1025
1021
Uml 1 (1)>= 10000Nicht signifikant 
BOLOGNA/BORGO (A
IT 37
Fr 20.05. 01:50171272 %1025
1025
1021
Uml 1 (1)>= 10000Nicht signifikant 
BOLOGNA/BORGO (A
IT 37
Fr 20.05. 01:20161172 %1026
1026
1022
Uml 1 (1)>= 10000Nicht signifikant 
BOLOGNA/BORGO (A
IT 37
Fr 20.05. 00:50171272 %1026
1026
1022
SSO 2 (4)>= 10000Nicht signifikant 
BOLOGNA/BORGO (A
IT 37
Fr 20.05. 00:20171063 %1026
1026
1022
O 1 (2)>= 10000Nicht signifikant 
BOLOGNA/BORGO (A
IT 37
Do 19.05. 23:50161068 %1026
1026
1022
O 2 (4)>= 10000Nicht signifikant 
BOLOGNA/BORGO (A
IT 37
Do 19.05. 23:20171063 %1026
1026
1022
O 2 (3)>= 10000Nicht signifikant 
BOLOGNA/BORGO (A
IT 37
Do 19.05. 22:50181059 %1026
1026
1022
O 2 (4)>= 10000Nicht signifikant 
BOLOGNA/BORGO (A
IT 37
Do 19.05. 22:20191056 %1025
1025
1021
O 2 (5)>= 10000Nicht signifikant 
BOLOGNA/BORGO (A
IT 37
Do 19.05. 21:50201053 %1025
1025
1021
O 2 (6)>= 10000Nicht signifikant 
BOLOGNA/BORGO (A
IT 37
Do 19.05. 21:2020949 %1025
1025
1021
O 3 (7)>= 10000Nicht signifikant 
BOLOGNA/BORGO (A
IT 37
Do 19.05. 20:5022943 %1025
1025
1021
O 3 (9)>= 10000Nicht signifikant 
BOLOGNA/BORGO (A
IT 37
Do 19.05. 20:2022943 %1025
1025
1021
O 3 (8)>= 10000Nicht signifikant 
BOLOGNA/BORGO (A
IT 37
Do 19.05. 19:5023941 %1024
1024
1020
O 3 (9)>= 10000Nicht signifikant 
BOLOGNA/BORGO (A
IT 37
Do 19.05. 19:2024938 %1024
1024
1020
O 3 (10)>= 10000Nicht signifikant 
BOLOGNA/BORGO (A
IT 37
Do 19.05. 18:50251141 %1024
1024
1020
O 3 (10)>= 10000Nicht signifikant 
BOLOGNA/BORGO (A
IT 37
Do 19.05. 18:20261139 %1024
1024
1020
O 3 (9)>= 10000Nicht signifikant 
BOLOGNA/BORGO (A
IT 37
Do 19.05. 17:50271137 %1024
1024
1020
O 3 (8)
NO - OSO
>= 10000Nicht signifikant 
BOLOGNA/BORGO (A
IT 37
Do 19.05. 17:20271137 %1025
1025
1021
ONO 3 (7)
NNO - O
>= 10000Nicht signifikant 
BOLOGNA/BORGO (A
IT 37
Do 19.05. 16:50271034 %1025
1025
1021
O 3 (8)
NO - OSO
>= 10000Nicht signifikant 
BOLOGNA/BORGO (A
IT 37
Do 19.05. 16:20271239 %1025
1025
1021
O 3 (7)
NO - OSO
>= 10000Nicht signifikant 
BOLOGNA/BORGO (A
IT 37
Do 19.05. 15:50271239 %1025
1025
1021
O 2 (6)
NO - OSO
>= 10000Nicht signifikant 
BOLOGNA/BORGO (A
IT 37
Do 19.05. 15:20261448 %1026
1026
1022
ONO 3 (7)
NNO - OSO
>= 10000Nicht signifikant 
BOLOGNA/BORGO (A
IT 37
Do 19.05. 14:50261345 %1026
1026
1022
O 3 (8)
NO - OSO
>= 10000Nicht signifikant 
BOLOGNA/BORGO (A
IT 37
Do 19.05. 14:20251347 %1026
1026
1022
ONO 3 (8)>= 10000Nicht signifikant 
BOLOGNA/BORGO (A
IT 37
Do 19.05. 13:50261345 %1026
1026
1022
O 3 (7)
O - SO
>= 10000Nicht signifikant 
BOLOGNA/BORGO (A
IT 37
Do 19.05. 13:20251244 %1026
1026
1022
O 3 (9)
NO - OSO
>= 10000Nicht signifikant 
BOLOGNA/BORGO (A
IT 37
Do 19.05. 12:50251244 %1027
1027
1023
NO 2 (6)
N - SSO
>= 10000Nicht signifikant 
BOLOGNA/BORGO (A
IT 37
Do 19.05. 12:20241144 %1027
1027
1023
O 3 (7)
NO - OSO
>= 10000Nicht signifikant 
BOLOGNA/BORGO (A
IT 37
Do 19.05. 11:50241144 %1027
1027
1023
ONO 3 (8)
NO - O
>= 10000Nicht signifikant 
BOLOGNA/BORGO (A
IT 37
Do 19.05. 11:20241144 %1027
1027
1023
ONO 3 (7)
NNO - O
>= 10000Nicht signifikant 
BOLOGNA/BORGO (A
IT 37
Do 19.05. 10:50231250 %1027
1027
1023
ONO 2 (5)
N - SO
>= 10000Nicht signifikant 
BOLOGNA/BORGO (A
IT 37
Do 19.05. 10:20231044 %1027
1027
1023
Uml 1 (2)>= 10000Nicht signifikant 
BOLOGNA/BORGO (A
IT 37
Do 19.05. 09:50221150 %1027
1027
1023
Uml 1 (1)>= 10000Nicht signifikant 
BOLOGNA/BORGO (A
IT 37
Do 19.05. 09:20211049 %1027
1027
1023
Uml 1 (2)>= 10000Nicht signifikant 
BOLOGNA/BORGO (A
IT 37
Do 19.05. 08:50201053 %1027
1027
1023
Uml 1 (2)>= 10000Nicht signifikant 
BOLOGNA/BORGO (A
IT 37
Do 19.05. 08:20191056 %1027
1027
1023
S 2 (3)>= 10000Nicht signifikant 
BOLOGNA/BORGO (A
IT 37
Do 19.05. 07:5018956 %1027
1027
1023
SSO 2 (3)
SO - SSW
>= 10000Nicht signifikant 
BOLOGNA/BORGO (A
IT 37
Do 19.05. 07:20171063 %1026
1026
1022
S 2 (3)
OSO - SSW
>= 10000Nicht signifikant 
BOLOGNA/BORGO (A
IT 37
Do 19.05. 06:50151072 %1026
1026
1022
Uml 1 (2)>= 10000Nicht signifikant 
BOLOGNA/BORGO (A
IT 37
Do 19.05. 06:2014972 %1026
1026
1022
S 2 (3)
SSO - SSW
>= 10000Nicht signifikant 
BOLOGNA/BORGO (A
IT 37
Do 19.05. 05:5015967 %1026
1026
1022
Uml 1 (2)>= 10000Nicht signifikant 
BOLOGNA/BORGO (A
IT 37
Do 19.05. 05:2015967 %1025
1025
1021
Uml 1 (2)>= 10000Nicht signifikant 
BOLOGNA/BORGO (A
IT 37
Do 19.05. 04:5016963 %1025
1025
1021
Uml 1 (2)>= 10000Nicht signifikant 
BOLOGNA/BORGO (A
IT 37
Do 19.05. 04:2014972 %1025
1025
1021
SSO 2 (4)>= 10000Nicht signifikant 
BOLOGNA/BORGO (A
IT 37
Do 19.05. 03:5016963 %1026
1026
1022
SW 1 (2)>= 10000Nicht signifikant 
BOLOGNA/BORGO (A
IT 37
Do 19.05. 03:2017855 %1025
1025
1021
S 2 (3)
SO - SSW
>= 10000Nicht signifikant 
BOLOGNA/BORGO (A
IT 37
Do 19.05. 02:5017752 %1025
1025
1021
SSO 2 (3)
OSO - S
>= 10000Nicht signifikant 
BOLOGNA/BORGO (A
IT 37
Do 19.05. 02:2019643 %1025
1025
1021
SSO 2 (5)
OSO - SSW
>= 10000Nicht signifikant 
BOLOGNA/BORGO (A
IT 37
Do 19.05. 01:5019643 %1025
1025
1021
SO 2 (5)>= 10000Nicht signifikant 
BOLOGNA/BORGO (A
IT 37
Do 19.05. 01:2018645 %1025
1025
1021
OSO 3 (7)>= 10000Nicht signifikant 
BOLOGNA/BORGO (A
IT 37
Do 19.05. 00:5018749 %1025
1025
1021
SO 2 (6)>= 10000Nicht signifikant 
BOLOGNA/BORGO (A
IT 37
Do 19.05. 00:2019746 %1025
1025
1021
SO 3 (7)>= 10000Nicht signifikant 
BOLOGNA/BORGO (A
IT 37
Mi 18.05. 23:5020640 %1024
1024
1020
SO 3 (8)>= 10000Nicht signifikant 
BOLOGNA/BORGO (A
IT 37
Mi 18.05. 23:2021740 %1024
1024
1020
SO 3 (8)>= 10000Nicht signifikant 
BOLOGNA/BORGO (A
IT 37
Mi 18.05. 22:5020846 %1024
1024
1020
OSO 3 (8)>= 10000Nicht signifikant 
BOLOGNA/BORGO (A
IT 37
Mi 18.05. 22:2020949 %1023
1023
1019
OSO 3 (8)>= 10000Nicht signifikant 
BOLOGNA/BORGO (A
IT 37
Mi 18.05. 21:50201053 %1023
1023
1019
OSO 3 (9)>= 10000Nicht signifikant 
BOLOGNA/BORGO (A
IT 37
Mi 18.05. 21:20211049 %1023
1023
1019
OSO 3 (9)>= 10000Nicht signifikant 
BOLOGNA/BORGO (A
IT 37
Mi 18.05. 20:50221150 %1023
1023
1019
O 4 (11)>= 10000Nicht signifikant 
BOLOGNA/BORGO (A
IT 37
Mi 18.05. 20:20221150 %1022
1022
1018
O 4 (11)>= 10000Nicht signifikant 
BOLOGNA/BORGO (A
IT 37
Mi 18.05. 19:50241144 %1022
1022
1018
O 4 (11)>= 10000Nicht signifikant 
BOLOGNA/BORGO (A
IT 37
Mi 18.05. 19:20251141 %1022
1022
1018
O 4 (12)>= 10000Nicht signifikant 
BOLOGNA/BORGO (A
IT 37
Mi 18.05. 18:50251244 %1021
1021
1017
O 4 (12)>= 10000Nicht signifikant 
BOLOGNA/BORGO (A
IT 37
Mi 18.05. 18:20261037 %1021
1021
1017
OSO 4 (14)>= 10000Nicht signifikant 
BOLOGNA/BORGO (A
IT 37
Mi 18.05. 17:50261139 %1021
1021
1017
O 4 (12)
ONO - SO
>= 10000Nicht signifikant 
BOLOGNA/BORGO (A
IT 37
Mi 18.05. 17:20271239 %1021
1021
1017
O 4 (14)>= 10000Nicht signifikant 
BOLOGNA/BORGO (A
IT 37
Mi 18.05. 16:50271445 %1021
1021
1017
O 4 (14)>= 10000Nicht signifikant 
BOLOGNA/BORGO (A
IT 37
Mi 18.05. 16:20271445 %1021
1021
1017
O 4 (14)>= 10000Nicht signifikant 
BOLOGNA/BORGO (A
IT 37
Mi 18.05. 15:50271445 %1021
1021
1017
O 4 (15)>= 10000Nicht signifikant 

Altimeter: Einstellung am Altimeter (Höhenmesser), die Höhe 0 muss auf diesen Luftdruckwert zeigen, damit das Gerät die Stationshöhe richtig anzeigt.

NN: Luftdruck reduziert auf "Normal Null", auf Meereshöhe, dieser von der Temperatur abhängige Wert wird bisweilen unkorrekt einfach als "Luftdruck" bezeichnet. Eigentlich nur eine fiktive Größe, die es erlaubt, Stationen auf unterschiedlichen Höhen miteinander zu vergleichen.

Station: Realer Luftdruck an der Station.